PDT,Max TemperatureF,Mean TemperatureF,Min TemperatureF,Max Dew PointF,MeanDew PointF,Min DewpointF,Max Humidity, Mean Humidity, Min Humidity, Max Sea Level PressureIn, Mean Sea Level PressureIn, Min Sea Level PressureIn, Max VisibilityMiles, Mean VisibilityMiles, Min VisibilityMiles, Max Wind SpeedMPH, Mean Wind SpeedMPH, Max Gust SpeedMPH,PrecipitationIn, CloudCover, Events, WindDirDegrees
2013-4-1,82,72,63,41,31,22,40,23,11,29.93,29.84,29.78,10,10,10,16,10,24,0.00,0,,270
2013-4-2,86,70,57,31,29,28,36,21,13,29.92,29.85,29.81,10,10,10,10,6,,0.00,0,,342
2013-4-3,91,76,61,37,27,20,30,18,8,29.99,29.91,29.85,10,10,10,15,6,20,0.00,0,,322
2013-4-4,93,76,61,30,25,21,25,15,8,29.95,29.86,29.77,10,10,10,15,5,25,0.00,0,,211
2013-4-5,89,78,68,39,36,30,33,22,15,29.85,29.78,29.70,10,10,10,14,8,,0.00,0,,240
2013-4-6,90,78,66,34,30,25,25,17,11,29.85,29.77,29.70,10,10,10,15,6,,0.00,0,,242
2013-4-7,89,76,63,33,31,28,30,20,11,29.78,29.68,29.52,10,10,10,15,6,,0.00,0,,239
2013-4-8,75,68,59,39,29,19,46,25,13,29.54,29.44,29.37,10,10,10,33,14,45,0.00,1,,288
2013-4-9,75,67,59,24,21,18,24,18,12,29.93,29.73,29.57,10,10,10,25,16,39,0.00,0,,4
2013-4-10,80,67,55,24,18,12,28,17,8,30.07,29.96,29.87,10,10,10,25,15,38,0.00,0,,360
2013-4-11,88,72,55,21,18,14,21,14,8,29.87,29.73,29.61,10,10,10,12,4,20,0.00,0,,21
2013-4-12,91,76,60,26,23,20,22,14,8,29.75,29.67,29.60,10,10,10,16,5,,0.00,0,,307
2013-4-13,95,78,64,32,27,23,22,14,8,29.69,29.59,29.47,10,10,10,22,8,30,0.00,0,,222
2013-4-14,91,80,69,40,33,31,27,19,12,29.59,29.51,29.41,10,10,10,26,8,32,0.00,0,,202
2013-4-15,87,76,66,41,36,25,39,24,10,29.66,29.53,29.46,10,10,10,24,14,32,0.00,2,,212
2013-4-16,75,67,59,39,24,8,43,23,8,29.80,29.69,29.58,10,10,10,24,12,31,0.00,1,,281
2013-4-17,73,64,55,31,20,10,40,21,10,30.08,29.94,29.81,10,10,10,25,11,33,0.00,1,,11
2013-4-18,73,64,55,22,14,9,27,15,8,30.22,30.14,30.09,10,10,10,24,15,34,0.00,0,,5
2013-4-19,84,70,57,17,12,7,17,11,7,30.16,30.02,29.85,10,10,10,12,6,,0.00,0,,348
2013-4-20,91,74,57,25,17,7,15,11,7,29.93,29.85,29.78,10,10,10,22,5,25,0.00,0,,352
2013-4-21,97,80,63,23,18,9,18,11,4,29.93,29.83,29.74,10,10,10,16,5,21,0.00,0,,238
2013-4-22,98,82,66,26,21,16,19,10,5,29.80,29.69,29.57,10,10,10,17,7,23,0.00,0,,238
2013-4-23,82,75,63,32,10,-3,19,9,4,29.93,29.81,29.60,10,10,7,37,21,47,0.00,0,,358
2013-4-24,89,72,54,13,7,1,12,8,5,29.87,29.78,29.69,10,10,10,17,7,20,0.00,0,,355
2013-4-25,88,74,61,34,21,4,22,13,8,29.88,29.79,29.70,10,10,10,12,5,,0.00,0,,227
2013-4-26,95,80,66,37,31,17,31,19,9,30.02,29.94,29.88,10,10,10,10,3,,0.00,0,,113
2013-4-27,100,82,64,23,17,11,18,10,4,30.00,29.90,29.79,10,10,10,18,5,25,0.00,0,,346
2013-4-28,104,86,69,19,15,12,11,7,4,29.82,29.72,29.60,10,10,10,12,5,,0.00,0,,224
2013-4-29,107,88,71,24,19,14,13,8,4,29.67,29.57,29.47,10,10,10,18,6,26,0.00,0,,234
2013-4-30,102,90,77,33,20,14,15,8,4,29.56,29.51,29.47,10,10,10,21,10,32,0.00,0,,229